Time;durP1;ratioP1;P1;durP2;ratioP2;P2;SDS_P1;SDS_P2;PMS_P1;PMS_P2;Temp;Humidity;BMP_temperature;BMP_pressure;BME280_temperature;BME280_humidity;BME280_pressure;Samples;Min_cycle;Max_cycle;Signal;HPM_P1;HPM_P2
2023/01/30 00:01:42;;;;;;;29.08;18.83;;;7.80;99.90;;;;;;4919695;28;92460;-74
2023/01/30 00:04:13;;;;;;;30.25;20.00;;;7.90;99.90;;;;;;4936874;28;92405;-74
2023/01/30 00:06:43;;;;;;;30.20;19.48;;;7.90;99.90;;;;;;4935336;28;95868;-74
2023/01/30 00:09:13;;;;;;;26.63;17.75;;;7.90;99.90;;;;;;4903515;28;92539;-74
2023/01/30 00:11:41;;;;;;;30.27;19.08;;;7.90;99.90;;;;;;4936858;28;92420;-74
2023/01/30 00:14:08;;;;;;;37.08;20.95;;;7.90;99.90;;;;;;4919517;28;96149;-74
2023/01/30 00:16:35;;;;;;;33.08;20.90;;;7.90;99.90;;;;;;4937125;28;92979;-74
2023/01/30 00:19:02;;;;;;;28.88;20.10;;;7.90;99.90;;;;;;4935827;28;92388;-74
2023/01/30 00:21:29;;;;;;;27.15;18.65;;;8.00;99.90;;;;;;4935623;28;93120;-74
2023/01/30 00:23:58;;;;;;;28.30;19.85;;;8.00;99.90;;;;;;4950239;28;94930;-74
2023/01/30 00:26:26;;;;;;;26.77;17.40;;;8.00;99.90;;;;;;4935116;28;95444;-74
2023/01/30 00:28:53;;;;;;;28.35;18.48;;;8.00;99.90;;;;;;4919097;28;93019;-74
2023/01/30 00:31:20;;;;;;;29.85;19.58;;;8.00;99.90;;;;;;4935255;28;92493;-74
2023/01/30 00:33:49;;;;;;;27.50;17.45;;;8.00;99.90;;;;;;4934629;28;93105;-74
2023/01/30 00:36:16;;;;;;;29.35;18.35;;;8.00;99.90;;;;;;4935285;28;95505;-74
2023/01/30 00:38:43;;;;;;;28.55;16.52;;;8.00;99.90;;;;;;4936514;28;92623;-74
2023/01/30 00:41:12;;;;;;;26.40;16.30;;;8.10;99.90;;;;;;4935312;28;91727;-74
2023/01/30 00:49:16;;;;;;;20.02;14.88;;;8.10;99.90;;;;;;4935476;28;94831;-74
2023/01/30 00:51:43;;;;;;;28.75;18.05;;;8.10;99.90;;;;;;4934851;28;92503;-74
2023/01/30 00:54:11;;;;;;;25.58;15.68;;;8.10;99.90;;;;;;4918573;28;94495;-74
2023/01/30 00:56:38;;;;;;;28.65;16.42;;;8.10;99.90;;;;;;4902507;28;95636;-74
2023/01/30 00:59:05;;;;;;;22.85;16.17;;;8.20;99.90;;;;;;4936219;28;92483;-74
2023/01/30 01:01:32;;;;;;;23.65;15.27;;;8.20;99.90;;;;;;4917971;28;92496;-74
2023/01/30 01:04:00;;;;;;;24.40;14.38;;;8.20;99.90;;;;;;4934226;28;95441;-74
2023/01/30 01:06:27;;;;;;;21.65;14.68;;;8.20;99.90;;;;;;4936473;28;91974;-74
2023/01/30 01:08:55;;;;;;;20.95;14.18;;;8.30;99.90;;;;;;4934408;28;92518;-74
2023/01/30 01:11:25;;;;;;;21.08;13.73;;;8.30;99.90;;;;;;4936243;28;92512;-74
2023/01/30 01:13:58;;;;;;;21.73;13.00;;;8.30;99.90;;;;;;4932965;28;98841;-74
2023/01/30 01:16:27;;;;;;;29.00;17.33;;;8.30;99.90;;;;;;4918359;28;97558;-74
2023/01/30 01:18:57;;;;;;;25.35;14.85;;;8.30;99.90;;;;;;4934608;28;92576;-74
2023/01/30 01:21:24;;;;;;;26.25;16.05;;;8.30;99.90;;;;;;4936010;28;92384;-74
2023/01/30 01:23:55;;;;;;;24.38;15.65;;;8.30;99.90;;;;;;4935722;28;93314;-74
2023/01/30 01:26:23;;;;;;;27.92;14.52;;;8.30;99.90;;;;;;4934338;28;95549;-74
2023/01/30 01:28:54;;;;;;;19.88;13.52;;;8.30;99.90;;;;;;4934553;28;92487;-74
2023/01/30 01:31:22;;;;;;;19.70;12.68;;;8.30;99.90;;;;;;4935060;28;91755;-74
2023/01/30 01:33:50;;;;;;;18.60;12.13;;;8.30;99.90;;;;;;4934206;28;96457;-74
2023/01/30 01:36:18;;;;;;;17.27;11.77;;;8.30;99.90;;;;;;4934456;28;96602;-74
2023/01/30 01:39:05;;;;;;;16.67;10.95;;;8.30;99.90;;;;;;4932889;28;94938;-74
2023/01/30 01:41:32;;;;;;;21.05;11.23;;;8.30;99.90;;;;;;4934755;28;92549;-74
2023/01/30 01:44:05;;;;;;;15.63;9.27;;;8.20;99.90;;;;;;4933822;28;95400;-74
2023/01/30 01:46:41;;;;;;;15.55;10.00;;;8.20;99.90;;;;;;4935022;28;95517;-74
2023/01/30 01:49:31;;;;;;;15.43;9.02;;;8.20;99.90;;;;;;4935719;28;93031;-74
2023/01/30 01:52:06;;;;;;;13.27;8.45;;;8.20;99.90;;;;;;4934487;28;92543;-74
2023/01/30 01:54:37;;;;;;;15.13;7.90;;;8.20;99.90;;;;;;4934524;28;96464;-74
2023/01/30 01:57:10;;;;;;;14.15;8.20;;;8.20;99.90;;;;;;4936402;28;93521;-74
2023/01/30 01:59:44;;;;;;;13.20;8.17;;;8.20;99.90;;;;;;4918906;28;92469;-74
2023/01/30 02:02:13;;;;;;;11.65;7.15;;;8.20;99.90;;;;;;4934403;28;92928;-74
2023/01/30 02:05:02;;;;;;;11.35;6.68;;;8.20;99.90;;;;;;4933431;28;95870;-74
2023/01/30 02:07:50;;;;;;;8.05;5.93;;;8.20;99.90;;;;;;4934387;28;98095;-73
2023/01/30 02:10:21;;;;;;;9.57;6.70;;;8.20;99.90;;;;;;4934978;28;92427;-74
2023/01/30 02:12:50;;;;;;;10.80;5.78;;;8.20;99.90;;;;;;4919534;28;92473;-74
2023/01/30 02:15:20;;;;;;;6.95;5.18;;;8.20;99.90;;;;;;4937625;28;94425;-74
2023/01/30 02:17:47;;;;;;;9.02;5.07;;;8.20;99.90;;;;;;4939008;28;93047;-74
2023/01/30 02:20:26;;;;;;;11.98;6.30;;;8.20;99.90;;;;;;4939208;28;92384;-74
2023/01/30 02:23:14;;;;;;;8.02;4.95;;;8.30;99.90;;;;;;4939602;28;91741;-74
2023/01/30 02:26:43;;;;;;;6.57;4.53;;;8.30;99.90;;;;;;4921681;28;95908;-74
2023/01/30 02:29:45;;;;;;;7.68;4.20;;;8.30;99.90;;;;;;4900681;28;95604;-74
2023/01/30 02:32:27;;;;;;;7.00;3.90;;;8.20;99.90;;;;;;4896986;28;94958;-74
2023/01/30 02:35:21;;;;;;;9.70;4.07;;;8.20;99.90;;;;;;4933572;28;92377;-74
2023/01/30 02:37:58;;;;;;;;;;;8.20;99.90;;;;;;4937874;28;95714;-74
2023/01/30 02:41:02;;;;;;;4.40;3.30;;;8.20;99.90;;;;;;4938324;28;95054;-74
2023/01/30 02:43:38;;;;;;;4.78;3.60;;;8.20;99.90;;;;;;4937835;28;92594;-74
2023/01/30 02:46:16;;;;;;;5.25;3.55;;;8.20;99.90;;;;;;4937394;28;92452;-73
2023/01/30 02:48:57;;;;;;;5.68;3.60;;;8.20;99.90;;;;;;4937215;28;95876;-73
2023/01/30 02:51:30;;;;;;;6.68;3.67;;;8.30;99.90;;;;;;4937836;28;93187;-74
2023/01/30 02:53:58;;;;;;;5.03;3.38;;;8.30;99.90;;;;;;4937526;28;92566;-74
2023/01/30 02:56:26;;;;;;;5.05;3.50;;;8.30;99.90;;;;;;4937004;28;92631;-74
2023/01/30 02:59:07;;;;;;;9.20;3.97;;;8.20;99.90;;;;;;4920027;28;98138;-73
2023/01/30 03:01:40;;;;;;;6.60;4.38;;;8.30;99.90;;;;;;4936637;28;97989;-73
2023/01/30 03:04:47;;;;;;;7.85;3.75;;;8.30;99.90;;;;;;4937055;28;92506;-74
2023/01/30 03:07:31;;;;;;;8.48;3.60;;;8.30;99.90;;;;;;4936926;28;92473;-74
2023/01/30 03:10:34;;;;;;;6.05;4.13;;;8.30;99.90;;;;;;4938451;28;92981;-74
2023/01/30 03:13:24;;;;;;;10.73;4.65;;;8.40;99.90;;;;;;4922117;28;95946;-74
2023/01/30 03:15:58;;;;;;;11.10;4.53;;;8.40;99.90;;;;;;4936965;28;92386;-74
2023/01/30 03:18:25;;;;;;;14.73;4.60;;;8.40;99.90;;;;;;4953638;28;92467;-74
2023/01/30 03:20:53;;;;;;;9.82;4.78;;;8.50;99.90;;;;;;4936911;28;95998;-74
2023/01/30 03:23:20;;;;;;;6.13;3.92;;;8.50;99.90;;;;;;4936450;28;95567;-74
2023/01/30 03:25:48;;;;;;;11.65;3.92;;;8.50;99.90;;;;;;4936638;28;95194;-74
2023/01/30 03:28:19;;;;;;;12.10;4.68;;;8.50;99.90;;;;;;4936622;28;92584;-74
2023/01/30 03:30:46;;;;;;;9.85;3.92;;;8.60;99.90;;;;;;4920723;28;96266;-74
2023/01/30 03:33:13;;;;;;;10.25;4.32;;;8.60;99.90;;;;;;4952827;28;95918;-74
2023/01/30 03:35:46;;;;;;;10.98;4.57;;;8.60;99.90;;;;;;4921321;28;92582;-74
2023/01/30 03:38:13;;;;;;;13.02;4.20;;;8.60;99.90;;;;;;4936428;28;92603;-74
2023/01/30 03:40:40;;;;;;;11.52;3.40;;;8.60;99.90;;;;;;4936210;28;96039;-74
2023/01/30 03:43:08;;;;;;;12.13;4.05;;;8.60;99.90;;;;;;4936896;28;95030;-74
2023/01/30 03:45:36;;;;;;;19.27;3.95;;;8.60;99.90;;;;;;4936607;28;92529;-74
2023/01/30 03:48:04;;;;;;;10.43;3.67;;;8.60;99.90;;;;;;4936530;28;93176;-73
2023/01/30 03:50:31;;;;;;;17.90;4.15;;;8.60;99.90;;;;;;4918984;28;96561;-74
2023/01/30 03:52:59;;;;;;;15.73;3.78;;;8.60;99.90;;;;;;4920338;28;97825;-74
2023/01/30 03:55:27;;;;;;;13.52;3.83;;;8.60;99.90;;;;;;4904659;28;92653;-74
2023/01/30 03:57:58;;;;;;;10.55;2.83;;;8.60;99.90;;;;;;4969022;28;92681;-74
2023/01/30 04:00:28;;;;;;;10.40;2.80;;;8.60;99.90;;;;;;4935759;28;95712;-74
2023/01/30 04:02:56;;;;;;;13.18;3.45;;;8.60;99.90;;;;;;4936100;28;95265;-74
2023/01/30 04:05:23;;;;;;;16.80;3.67;;;8.60;99.90;;;;;;4920250;28;92608;-74
2023/01/30 04:07:58;;;;;;;18.33;4.68;;;8.50;99.90;;;;;;4936608;28;91874;-73
2023/01/30 04:10:26;;;;;;;18.80;3.85;;;8.50;99.90;;;;;;4968210;28;96190;-74
2023/01/30 04:12:53;;;;;;;14.02;4.05;;;8.50;99.90;;;;;;4936082;28;95470;-74
2023/01/30 04:15:21;;;;;;;16.42;3.78;;;8.50;99.90;;;;;;4918775;28;94862;-74
2023/01/30 04:18:01;;;;;;;13.75;3.63;;;8.50;99.90;;;;;;4921963;28;92673;-74
2023/01/30 04:20:46;;;;;;;15.98;3.45;;;8.40;99.90;;;;;;4949690;28;95510;-74
2023/01/30 04:23:18;;;;;;;16.80;3.42;;;8.30;99.90;;;;;;4905070;28;95278;-73
2023/01/30 04:25:45;;;;;;;12.25;3.65;;;8.20;99.90;;;;;;4937620;28;92345;-74
2023/01/30 04:28:15;;;;;;;14.85;4.53;;;8.10;99.90;;;;;;4935655;28;92506;-74
2023/01/30 04:30:43;;;;;;;21.73;4.28;;;8.00;99.90;;;;;;4935804;28;95308;-74
2023/01/30 04:33:29;;;;;;;10.68;2.92;;;7.90;99.90;;;;;;4937774;28;92385;-73
2023/01/30 04:35:58;;;;;;;8.00;2.85;;;7.80;99.90;;;;;;4967499;28;92786;-73
2023/01/30 04:38:27;;;;;;;13.98;2.67;;;7.70;99.90;;;;;;4935719;28;92499;-73
2023/01/30 04:40:56;;;;;;;16.65;4.00;;;7.70;99.90;;;;;;4934310;28;94929;-73
2023/01/30 04:43:27;;;;;;;13.38;3.13;;;7.60;99.90;;;;;;4935392;28;97579;-73
2023/01/30 04:46:12;;;;;;;11.90;2.78;;;7.50;99.90;;;;;;4935582;28;92455;-74
2023/01/30 04:48:40;;;;;;;15.45;3.63;;;7.40;99.90;;;;;;4935549;28;92494;-74
2023/01/30 04:51:07;;;;;;;12.35;3.25;;;7.40;99.90;;;;;;4935158;28;96069;-74
2023/01/30 04:53:36;;;;;;;12.65;3.60;;;7.40;99.90;;;;;;4919537;28;95925;-73
2023/01/30 04:56:03;;;;;;;24.65;3.72;;;7.30;99.90;;;;;;4918999;28;93277;-74
2023/01/30 04:58:30;;;;;;;10.68;3.10;;;7.30;99.90;;;;;;4968252;28;91732;-74
2023/01/30 05:01:29;;;;;;;12.98;3.70;;;7.30;99.90;;;;;;4936514;28;93256;-74
2023/01/30 05:03:57;;;;;;;14.18;3.95;;;7.40;99.90;;;;;;4967665;28;95480;-73
2023/01/30 05:06:24;;;;;;;10.80;3.00;;;7.40;99.90;;;;;;4934284;28;94780;-74
2023/01/30 05:08:53;;;;;;;16.85;3.75;;;7.40;99.90;;;;;;4919216;28;92555;-73
2023/01/30 05:11:22;;;;;;;12.75;3.45;;;7.40;99.90;;;;;;4936530;28;93181;-74
2023/01/30 05:13:49;;;;;;;13.68;3.00;;;7.30;99.90;;;;;;4935272;28;95614;-74
2023/01/30 05:16:17;;;;;;;15.82;3.70;;;7.20;99.90;;;;;;4967668;28;93201;-74
2023/01/30 05:18:45;;;;;;;16.30;3.13;;;7.20;99.90;;;;;;4935375;28;92506;-74
2023/01/30 05:21:24;;;;;;;10.63;3.03;;;7.20;99.90;;;;;;4967508;28;93242;-74
2023/01/30 05:23:52;;;;;;;16.05;3.45;;;7.20;99.90;;;;;;4937237;28;93211;-74
2023/01/30 05:26:19;;;;;;;13.32;2.92;;;7.20;99.90;;;;;;4936537;28;92434;-74
2023/01/30 05:28:52;;;;;;;14.07;3.33;;;7.20;99.90;;;;;;4936154;28;92459;-73
2023/01/30 05:31:19;;;;;;;17.77;3.47;;;7.30;99.90;;;;;;4935051;28;95698;-73
2023/01/30 05:33:48;;;;;;;12.63;3.03;;;7.30;99.90;;;;;;4934895;28;95410;-73
2023/01/30 05:36:17;;;;;;;15.73;3.25;;;7.30;99.90;;;;;;4936536;28;92451;-74
2023/01/30 05:38:45;;;;;;;14.50;3.30;;;7.20;99.90;;;;;;4934860;28;92622;-73
2023/01/30 05:41:14;;;;;;;8.77;2.88;;;7.20;99.90;;;;;;4967556;28;93188;-73
2023/01/30 05:43:41;;;;;;;16.92;3.78;;;7.10;99.90;;;;;;4934505;28;92965;-73
2023/01/30 05:46:10;;;;;;;22.48;3.72;;;7.10;99.90;;;;;;4934975;28;92621;-74
2023/01/30 05:48:37;;;;;;;16.52;3.55;;;7.10;99.90;;;;;;4937689;28;91774;-73
2023/01/30 05:51:05;;;;;;;18.30;3.55;;;7.00;99.90;;;;;;4939398;28;93637;-73
2023/01/30 05:53:33;;;;;;;16.90;3.35;;;7.00;99.90;;;;;;4937860;28;94819;-73
2023/01/30 05:56:03;;;;;;;20.08;4.30;;;7.00;99.90;;;;;;4938019;28;95427;-74
2023/01/30 05:58:31;;;;;;;18.65;3.30;;;6.90;99.90;;;;;;4970983;28;92777;-73
2023/01/30 06:01:08;;;;;;;14.55;3.13;;;6.90;99.90;;;;;;4938841;28;93374;-74
2023/01/30 06:03:35;;;;;;;21.77;3.90;;;6.90;99.90;;;;;;4937732;28;95243;-73
2023/01/30 06:06:05;;;;;;;22.20;4.57;;;6.80;99.90;;;;;;4938242;28;92442;-73
2023/01/30 06:08:32;;;;;;;14.25;3.35;;;6.80;99.90;;;;;;4937595;28;92554;-73
2023/01/30 06:11:09;;;;;;;12.50;3.53;;;6.70;99.90;;;;;;4938143;28;93087;-74
2023/01/30 06:13:37;;;;;;;14.77;3.90;;;6.70;99.90;;;;;;4921956;28;95728;-73
2023/01/30 06:16:10;;;;;;;25.30;4.53;;;6.70;99.90;;;;;;4970630;28;92350;-74
2023/01/30 06:18:38;;;;;;;16.75;4.45;;;6.70;99.90;;;;;;4937500;28;92545;-74
2023/01/30 06:21:06;;;;;;;16.48;4.68;;;6.80;99.90;;;;;;4937695;28;95659;-73
2023/01/30 06:23:33;;;;;;;22.10;4.43;;;6.80;99.90;;;;;;4937813;28;95716;-73
2023/01/30 06:26:00;;;;;;;18.67;3.95;;;6.80;99.90;;;;;;4937938;28;92805;-74
2023/01/30 06:28:30;;;;;;;20.85;3.90;;;6.80;99.90;;;;;;4939507;28;93084;-74
2023/01/30 06:30:57;;;;;;;18.13;4.05;;;6.80;99.90;;;;;;4938992;28;93510;-74
2023/01/30 06:33:24;;;;;;;18.25;4.43;;;6.90;99.90;;;;;;4922001;28;93191;-73
2023/01/30 06:35:52;;;;;;;16.45;3.47;;;6.90;99.90;;;;;;4937441;28;92926;-74
2023/01/30 06:38:19;;;;;;;27.60;3.78;;;7.00;99.90;;;;;;4938093;28;91730;-74
2023/01/30 06:40:48;;;;;;;18.05;3.38;;;7.10;99.90;;;;;;4938896;28;93658;-73
2023/01/30 06:43:16;;;;;;;15.93;3.17;;;7.10;99.90;;;;;;4937310;28;93451;-74
2023/01/30 06:45:43;;;;;;;19.88;3.92;;;7.20;99.90;;;;;;4937652;28;95183;-74
2023/01/30 06:48:10;;;;;;;19.15;3.13;;;7.20;99.90;;;;;;4938574;28;92491;-73
2023/01/30 06:50:37;;;;;;;23.13;3.10;;;7.20;99.90;;;;;;4937017;28;95954;-74
2023/01/30 06:53:06;;;;;;;16.60;3.30;;;7.20;99.90;;;;;;4937202;28;95786;-74
2023/01/30 06:55:34;;;;;;;20.88;3.85;;;7.20;99.90;;;;;;4937305;28;92539;-74
2023/01/30 06:58:03;;;;;;;18.73;3.13;;;7.20;99.90;;;;;;4937837;28;92582;-73
2023/01/30 07:00:30;;;;;;;20.88;3.85;;;7.20;99.90;;;;;;4936967;28;93136;-73
2023/01/30 07:02:57;;;;;;;21.23;4.15;;;7.30;99.90;;;;;;4921718;28;93123;-73
2023/01/30 07:05:24;;;;;;;20.48;4.78;;;7.30;99.90;;;;;;4969797;28;92493;-73
2023/01/30 07:07:52;;;;;;;20.77;3.20;;;7.30;99.90;;;;;;4937173;28;92649;-73
2023/01/30 07:10:19;;;;;;;18.73;3.20;;;7.30;99.90;;;;;;4937100;28;95578;-74
2023/01/30 07:12:46;;;;;;;12.23;2.42;;;7.30;99.90;;;;;;4920634;28;105512;-74
2023/01/30 07:15:14;;;;;;;14.32;3.42;;;7.40;99.90;;;;;;4937132;28;92428;-74
2023/01/30 07:17:41;;;;;;;19.38;4.35;;;7.50;99.90;;;;;;4904562;28;92458;-74
2023/01/30 07:20:09;;;;;;;23.02;3.53;;;7.50;99.90;;;;;;4936766;28;95988;-74
2023/01/30 07:22:36;;;;;;;23.27;3.45;;;7.50;99.90;;;;;;4937950;28;93054;-73
2023/01/30 07:25:04;;;;;;;22.00;3.72;;;7.50;99.90;;;;;;4920963;28;92596;-74
2023/01/30 07:27:31;;;;;;;17.38;3.72;;;7.50;99.90;;;;;;4937248;28;91759;-74
2023/01/30 07:29:58;;;;;;;20.80;3.58;;;7.60;99.90;;;;;;4938017;28;93285;-74
2023/01/30 07:32:25;;;;;;;17.58;3.25;;;7.60;99.90;;;;;;4920450;28;95553;-74
2023/01/30 07:34:52;;;;;;;23.75;3.58;;;7.60;99.90;;;;;;4919150;28;94902;-73
2023/01/30 07:37:19;;;;;;;19.63;3.30;;;7.60;99.90;;;;;;4937005;28;92597;-74
2023/01/30 07:39:46;;;;;;;17.08;2.95;;;7.60;99.90;;;;;;4936404;28;92690;-74
2023/01/30 07:42:13;;;;;;;22.40;3.00;;;7.60;99.90;;;;;;4936785;28;93156;-74
2023/01/30 07:44:40;;;;;;;26.38;4.13;;;7.60;99.90;;;;;;4920297;28;92556;-74
2023/01/30 07:47:07;;;;;;;20.65;3.67;;;7.60;99.90;;;;;;4938048;28;92568;-74
2023/01/30 07:49:34;;;;;;;16.30;3.03;;;7.70;99.90;;;;;;4937645;28;93378;-74
2023/01/30 07:52:01;;;;;;;19.75;4.10;;;7.70;99.90;;;;;;4938042;28;93076;-73
2023/01/30 07:54:28;;;;;;;20.00;4.38;;;7.70;99.90;;;;;;4936678;28;92610;-73
2023/01/30 07:56:55;;;;;;;16.98;3.75;;;7.80;99.90;;;;;;4968503;28;92564;-74
2023/01/30 07:59:22;;;;;;;20.35;4.18;;;7.80;99.90;;;;;;4936731;28;96029;-74
2023/01/30 08:01:49;;;;;;;16.80;4.72;;;7.80;99.90;;;;;;4936985;28;95582;-74
2023/01/30 08:04:16;;;;;;;18.73;3.20;;;7.90;99.90;;;;;;4937868;28;92460;-74
2023/01/30 08:06:44;;;;;;;22.40;3.28;;;7.90;99.90;;;;;;4935849;28;92458;-74
2023/01/30 08:09:11;;;;;;;18.65;3.80;;;7.90;99.90;;;;;;4936379;28;93866;-74
2023/01/30 08:11:38;;;;;;;22.30;3.97;;;8.00;99.90;;;;;;4937264;28;92950;-73
2023/01/30 08:14:05;;;;;;;18.15;3.05;;;8.00;99.90;;;;;;4937368;28;92463;-73
2023/01/30 08:16:32;;;;;;;25.70;4.25;;;8.00;99.90;;;;;;4936642;28;91686;-73
2023/01/30 08:19:03;;;;;;;24.63;3.92;;;8.00;99.90;;;;;;4951961;28;93136;-74
2023/01/30 08:21:31;;;;;;;23.10;4.55;;;8.10;99.90;;;;;;4936020;28;95745;-73
2023/01/30 08:23:58;;;;;;;19.95;3.90;;;8.10;99.90;;;;;;4934854;28;94836;-73
2023/01/30 08:26:27;;;;;;;17.95;4.13;;;8.20;99.90;;;;;;4937429;28;92475;-73
2023/01/30 08:28:54;;;;;;;21.35;3.25;;;8.20;99.90;;;;;;4936758;28;93318;-73
2023/01/30 08:31:22;;;;;;;13.98;3.15;;;8.20;99.90;;;;;;4935731;28;93150;-73
2023/01/30 08:33:49;;;;;;;15.57;3.33;;;8.30;99.90;;;;;;4952198;28;92998;-73
2023/01/30 08:36:16;;;;;;;18.63;4.22;;;8.30;99.90;;;;;;4935430;28;97491;-73
2023/01/30 08:38:43;;;;;;;19.48;3.65;;;8.40;99.90;;;;;;4935447;28;94803;-73
2023/01/30 08:41:10;;;;;;;16.42;3.95;;;8.40;99.90;;;;;;4951952;28;92948;-73
2023/01/30 08:43:37;;;;;;;17.20;4.45;;;8.40;99.90;;;;;;4936326;28;92920;-74
2023/01/30 08:46:04;;;;;;;19.35;3.50;;;8.40;99.90;;;;;;4935519;28;92590;-73
2023/01/30 08:48:31;;;;;;;15.75;3.63;;;8.50;99.90;;;;;;4935763;28;95628;-73
2023/01/30 08:51:14;;;;;;;17.90;3.47;;;8.50;99.90;;;;;;4935410;28;97952;-73
2023/01/30 08:53:41;;;;;;;19.00;3.72;;;8.50;99.90;;;;;;4919616;28;92493;-73
2023/01/30 08:56:08;;;;;;;25.08;3.58;;;8.50;99.90;;;;;;4968056;28;92417;-73
2023/01/30 08:58:35;;;;;;;14.30;3.55;;;8.60;99.90;;;;;;4935562;28;93149;-73
2023/01/30 09:01:06;;;;;;;22.17;4.05;;;8.60;99.90;;;;;;4919026;28;93054;-73
2023/01/30 09:03:33;;;;;;;20.60;3.65;;;8.70;99.90;;;;;;4936884;28;92803;-73
2023/01/30 09:06:00;;;;;;;16.70;3.30;;;8.70;99.90;;;;;;4935595;28;95570;-73
2023/01/30 09:08:27;;;;;;;19.63;3.67;;;8.70;99.90;;;;;;4903182;28;94263;-73
2023/01/30 09:11:03;;;;;;;16.95;3.63;;;8.70;99.90;;;;;;4936503;28;92967;-73
2023/01/30 09:13:31;;;;;;;17.13;3.72;;;8.70;99.90;;;;;;4934169;28;94910;-73
2023/01/30 09:15:58;;;;;;;20.58;3.85;;;8.80;99.90;;;;;;4934884;28;92556;-73
2023/01/30 09:18:25;;;;;;;23.17;4.30;;;8.80;99.90;;;;;;4934998;28;95850;-74
2023/01/30 09:21:00;;;;;;;16.77;3.90;;;8.90;99.90;;;;;;4936323;28;94816;-74
2023/01/30 09:23:27;;;;;;;20.80;3.83;;;9.00;99.90;;;;;;4934343;28;92427;-74
2023/01/30 09:25:54;;;;;;;13.15;2.95;;;9.10;99.90;;;;;;4936311;28;92461;-74
2023/01/30 09:28:21;;;;;;;19.27;3.95;;;9.10;99.90;;;;;;4935080;28;93105;-74
2023/01/30 09:30:48;;;;;;;17.15;3.80;;;9.20;99.90;;;;;;4936699;28;93009;-74
2023/01/30 09:33:19;;;;;;;24.83;4.57;;;9.20;99.90;;;;;;4967407;28;92478;-74
2023/01/30 09:35:47;;;;;;;23.23;4.13;;;9.30;99.90;;;;;;4919550;28;92537;-74
2023/01/30 09:38:14;;;;;;;23.67;4.18;;;9.30;99.90;;;;;;4934600;28;95706;-74
2023/01/30 09:41:14;;;;;;;13.93;3.20;;;9.30;99.90;;;;;;4918466;28;98332;-74
2023/01/30 09:44:07;;;;;;;17.35;3.40;;;9.40;99.90;;;;;;4919524;28;92648;-74
2023/01/30 09:46:48;;;;;;;17.83;4.07;;;9.30;99.90;;;;;;4917036;28;92504;-74
2023/01/30 09:49:30;;;;;;;19.75;3.47;;;9.40;99.90;;;;;;4935825;28;93153;-74
2023/01/30 09:52:12;;;;;;;14.38;3.13;;;9.40;99.90;;;;;;4935081;28;92974;-74
2023/01/30 09:54:43;;;;;;;18.30;3.58;;;9.40;99.90;;;;;;4935116;28;92470;-74
2023/01/30 09:57:20;;;;;;;20.92;3.42;;;9.50;99.90;;;;;;4936688;28;92118;-74
2023/01/30 09:59:56;;;;;;;21.13;4.13;;;9.60;99.90;;;;;;4934340;28;93357;-74
2023/01/30 10:02:30;;;;;;;21.58;4.47;;;9.50;99.90;;;;;;4934394;28;93042;-74
2023/01/30 10:04:58;;;;;;;16.52;2.97;;;9.40;99.90;;;;;;4934101;28;94861;-74
2023/01/30 10:07:48;;;;;;;24.40;4.55;;;9.30;99.90;;;;;;4934852;28;92524;-74
2023/01/30 10:10:21;;;;;;;22.85;3.88;;;9.20;99.90;;;;;;4934451;28;93351;-74
2023/01/30 10:13:09;;;;;;;18.13;3.60;;;9.10;99.90;;;;;;4934793;28;93109;-74
2023/01/30 10:15:44;;;;;;;20.90;4.05;;;9.00;99.90;;;;;;4935021;28;92685;-74
2023/01/30 10:18:36;;;;;;;16.05;3.53;;;8.80;99.90;;;;;;4936159;28;92870;-74
2023/01/30 10:21:14;;;;;;;21.85;4.00;;;8.70;99.90;;;;;;4935648;28;93707;-74
2023/01/30 10:23:50;;;;;;;17.02;3.40;;;8.70;99.90;;;;;;4936294;28;93136;-74
2023/01/30 10:26:20;;;;;;;16.25;3.42;;;8.70;99.90;;;;;;4934680;28;92374;-74
2023/01/30 10:28:58;;;;;;;21.90;4.97;;;8.70;99.90;;;;;;4935814;28;92476;-74
2023/01/30 10:31:47;;;;;;;15.27;3.10;;;8.80;99.90;;;;;;4934790;28;95312;-74
2023/01/30 10:34:36;;;;;;;20.67;3.17;;;8.80;99.90;;;;;;4934086;28;98225;-73
2023/01/30 10:37:29;;;;;;;15.50;2.95;;;9.00;99.90;;;;;;4921583;28;92824;-74
2023/01/30 10:40:04;;;;;;;14.23;3.40;;;9.10;99.90;;;;;;4939119;28;92421;-74
2023/01/30 10:42:40;;;;;;;17.35;3.70;;;9.20;99.90;;;;;;4937777;28;92596;-74
2023/01/30 10:45:21;;;;;;;19.27;3.38;;;9.50;99.90;;;;;;4938678;28;93137;-74
2023/01/30 10:48:06;;;;;;;18.38;3.60;;;9.70;99.90;;;;;;4939165;28;92359;-74
2023/01/30 10:50:55;;;;;;;15.57;3.50;;;9.60;99.90;;;;;;4937977;28;91735;-74
2023/01/30 10:53:40;;;;;;;22.35;4.13;;;9.20;99.90;;;;;;4938823;28;93358;-74
2023/01/30 10:56:35;;;;;;;20.80;4.53;;;9.00;99.90;;;;;;4938399;28;93069;-74
2023/01/30 10:59:21;;;;;;;7.38;2.25;;;8.50;99.90;;;;;;4937563;28;94899;-74
2023/01/30 11:01:57;;;;;;;6.72;1.27;;;8.10;99.90;;;;;;4938237;28;92430;-74
2023/01/30 11:04:36;;;;;;;5.63;0.93;;;7.60;99.90;;;;;;4938222;28;93608;-74
2023/01/30 11:07:04;;;;;;;6.07;1.17;;;7.40;99.90;;;;;;4938753;28;93054;-74
2023/01/30 11:09:44;;;;;;;3.85;1.17;;;7.30;99.90;;;;;;4938300;28;92483;-74
2023/01/30 11:12:11;;;;;;;5.03;1.10;;;7.30;99.90;;;;;;4937210;28;92472;-74
2023/01/30 11:15:02;;;;;;;5.10;1.40;;;7.30;99.90;;;;;;4937385;28;93602;-74
2023/01/30 11:17:32;;;;;;;8.27;1.63;;;7.50;99.90;;;;;;4938397;28;91821;-74
2023/01/30 11:20:21;;;;;;;10.05;2.63;;;7.50;99.90;;;;;;4938507;28;92488;-74
2023/01/30 11:22:51;;;;;;;12.90;2.10;;;7.70;99.90;;;;;;4938552;28;92427;-74
2023/01/30 11:25:23;;;;;;;9.55;2.30;;;7.80;99.90;;;;;;4936620;28;95649;-74
2023/01/30 11:28:02;;;;;;;9.50;2.30;;;7.90;99.90;;;;;;4936586;28;97920;-74
2023/01/30 11:30:34;;;;;;;13.23;2.50;;;8.00;99.90;;;;;;4937879;28;92340;-74
2023/01/30 11:33:08;;;;;;;11.13;2.55;;;8.10;99.90;;;;;;4938496;28;92373;-74
2023/01/30 11:35:53;;;;;;;10.05;2.30;;;8.30;99.90;;;;;;4938189;28;93180;-74
2023/01/30 11:38:25;;;;;;;9.45;1.95;;;8.40;99.90;;;;;;4937787;28;93028;-74
2023/01/30 11:41:11;;;;;;;7.88;2.00;;;8.50;99.90;;;;;;4937382;28;93114;-74
2023/01/30 11:43:39;;;;;;;9.05;2.60;;;8.60;99.90;;;;;;4938954;28;91754;-74
2023/01/30 11:46:12;;;;;;;10.38;2.40;;;8.60;99.90;;;;;;4920254;28;93225;-74
2023/01/30 11:48:54;;;;;;;12.43;2.83;;;8.80;99.90;;;;;;4937910;28;93039;-74
2023/01/30 11:51:28;;;;;;;6.43;2.08;;;8.90;99.90;;;;;;4936971;28;95479;-74
2023/01/30 11:54:01;;;;;;;10.75;2.53;;;9.00;99.90;;;;;;4937874;28;92536;-74
2023/01/30 11:56:41;;;;;;;12.20;2.70;;;9.20;99.90;;;;;;4937852;28;92901;-74
2023/01/30 11:59:26;;;;;;;17.58;2.50;;;9.30;99.90;;;;;;4936598;28;93784;-74
2023/01/30 12:02:25;;;;;;;10.77;2.42;;;9.40;99.90;;;;;;4936432;28;92509;-73
2023/01/30 12:05:00;;;;;;;8.30;1.70;;;9.50;99.90;;;;;;4937802;28;92330;-73
2023/01/30 12:07:33;;;;;;;12.73;2.70;;;9.40;99.90;;;;;;4936051;28;95569;-73
2023/01/30 12:10:16;;;;;;;10.65;2.63;;;9.50;99.90;;;;;;4936231;28;95541;-74
2023/01/30 12:12:48;;;;;;;8.40;2.38;;;9.40;99.90;;;;;;4937630;28;92446;-73
2023/01/30 12:15:25;;;;;;;12.30;2.38;;;9.40;99.90;;;;;;4937819;28;92493;-73
2023/01/30 12:17:55;;;;;;;11.70;2.20;;;9.50;99.90;;;;;;4935936;28;95679;-73
2023/01/30 12:20:50;;;;;;;10.85;1.90;;;9.50;99.90;;;;;;4935620;28;97947;-73
2023/01/30 12:23:33;;;;;;;8.15;1.90;;;9.50;99.90;;;;;;4937424;28;92385;-73
2023/01/30 12:26:04;;;;;;;7.55;2.00;;;9.60;99.90;;;;;;4937442;28;92332;-73
2023/01/30 12:28:50;;;;;;;11.10;2.67;;;9.40;99.90;;;;;;4935614;28;96208;-73
2023/01/30 12:31:28;;;;;;;10.82;2.55;;;9.40;99.90;;;;;;4919870;28;95522;-73
2023/01/30 12:33:55;;;;;;;13.48;2.38;;;9.40;99.90;;;;;;4937586;28;92349;-73
2023/01/30 12:36:44;;;;;;;7.60;2.40;;;9.40;99.90;;;;;;4935863;28;91751;-73
2023/01/30 12:39:17;;;;;;;13.75;2.28;;;9.40;99.90;;;;;;4937030;28;93135;-73
2023/01/30 12:42:08;;;;;;;8.52;2.58;;;9.30;99.90;;;;;;4937159;28;93620;-74
2023/01/30 12:44:56;;;;;;;8.35;2.25;;;9.20;99.90;;;;;;4934266;28;94892;-73
2023/01/30 12:47:31;;;;;;;12.68;2.40;;;9.30;99.90;;;;;;4919698;28;92909;-73
2023/01/30 12:50:20;;;;;;;11.02;2.75;;;9.30;99.90;;;;;;4936850;28;93237;-73
2023/01/30 12:53:04;;;;;;;10.90;2.40;;;9.40;99.90;;;;;;4935702;28;92806;-73
2023/01/30 12:55:57;;;;;;;12.02;2.85;;;9.50;99.90;;;;;;4935860;28;93073;-73
2023/01/30 12:58:53;;;;;;;16.85;3.35;;;9.50;99.90;;;;;;4933955;28;92546;-73
2023/01/30 13:01:30;;;;;;;8.07;2.10;;;9.50;99.90;;;;;;4934325;28;94631;-73
2023/01/30 13:04:34;;;;;;;11.93;2.70;;;9.50;99.90;;;;;;4919739;28;93933;-73
2023/01/30 13:07:11;;;;;;;12.32;2.35;;;9.50;99.90;;;;;;4937146;28;92509;-73
2023/01/30 13:09:56;;;;;;;16.83;3.38;;;9.60;99.90;;;;;;4950501;28;92760;-73
2023/01/30 13:12:48;;;;;;;15.25;3.28;;;9.60;99.90;;;;;;4935281;28;94994;-73
2023/01/30 13:15:21;;;;;;;11.90;3.08;;;9.60;99.90;;;;;;4936360;28;95524;-73
2023/01/30 13:18:14;;;;;;;15.25;3.70;;;9.60;99.90;;;;;;4935711;28;92911;-73
2023/01/30 13:21:03;;;;;;;18.42;3.58;;;9.60;99.90;;;;;;4939086;28;92809;-74
2023/01/30 13:23:55;;;;;;;16.52;3.17;;;9.60;99.90;;;;;;4954286;28;96013;-73
2023/01/30 13:26:30;;;;;;;12.95;3.55;;;9.60;99.90;;;;;;4954646;28;94885;-73